Time;durP1;ratioP1;P1;durP2;ratioP2;P2;SDS_P1;SDS_P2;PMS_P1;PMS_P2;Temp;Humidity;BMP_temperature;BMP_pressure;BME280_temperature;BME280_humidity;BME280_pressure;Samples;Min_cycle;Max_cycle;Signal;HPM_P1;HPM_P2
2021/05/24 00:01:17;;;;;;;24.80;11.38;;;;;;;16.04;51.31;99669.91;1652113;86;21056;-72
2021/05/24 00:03:43;;;;;;;21.82;10.35;;;;;;;16.00;51.98;99672.93;1651647;86;21141;-70
2021/05/24 00:06:10;;;;;;;23.40;9.73;;;;;;;15.96;52.86;99682.20;1650954;86;20980;-70
2021/05/24 00:08:37;;;;;;;20.55;12.00;;;;;;;15.89;53.36;99695.81;1648506;86;21178;-71
2021/05/24 00:11:07;;;;;;;22.70;10.35;;;;;;;15.83;53.66;99703.72;1641173;86;21093;-70
2021/05/24 00:13:33;;;;;;;20.15;10.80;;;;;;;15.79;53.57;99703.48;1640805;86;21644;-69
2021/05/24 00:16:01;;;;;;;29.30;11.53;;;;;;;15.81;53.24;99714.05;1640882;86;21024;-70
2021/05/24 00:18:28;;;;;;;24.82;8.95;;;;;;;15.83;53.26;99709.14;1652337;86;21060;-70
2021/05/24 00:20:59;;;;;;;31.70;11.95;;;;;;;15.83;53.29;99711.85;1629593;86;20984;-69
2021/05/24 00:23:26;;;;;;;20.82;10.90;;;;;;;15.82;53.52;99711.61;1651848;86;21154;-68
2021/05/24 00:25:52;;;;;;;20.92;8.63;;;;;;;15.82;53.65;99716.49;1652925;86;21059;-69
2021/05/24 00:28:21;;;;;;;19.92;7.58;;;;;;;15.82;53.50;99720.56;1653028;85;21111;-70
2021/05/24 00:30:50;;;;;;;14.35;8.50;;;;;;;15.82;53.73;99723.27;1633891;86;21560;-69
2021/05/24 00:33:21;;;;;;;21.57;7.37;;;;;;;15.83;53.52;99732.19;1654202;86;21035;-69
2021/05/24 00:35:46;;;;;;;14.80;7.15;;;;;;;15.81;53.62;99740.63;1652029;86;21135;-69
2021/05/24 00:38:14;;;;;;;11.80;6.58;;;;;;;15.82;53.58;99735.48;1652866;86;21039;-71
2021/05/24 00:40:41;;;;;;;8.63;5.87;;;;;;;15.83;53.27;99743.86;1652671;86;21110;-70
2021/05/24 00:43:08;;;;;;;13.40;6.97;;;;;;;15.87;53.02;99748.19;1652754;86;21047;-70
2021/05/24 00:45:36;;;;;;;6.42;4.80;;;;;;;15.90;52.65;99742.19;1652905;86;21027;-70
2021/05/24 00:48:03;;;;;;;8.53;4.65;;;;;;;15.93;52.31;99751.10;1652689;86;21059;-71
2021/05/24 00:50:29;;;;;;;8.23;4.42;;;;;;;15.98;52.53;99760.02;1652706;86;21015;-70
2021/05/24 00:52:56;;;;;;;8.53;4.25;;;;;;;15.99;53.14;99762.19;1652918;86;21023;-70
2021/05/24 00:55:22;;;;;;;8.63;4.87;;;;;;;16.00;53.04;99763.27;1652760;86;20999;-70
2021/05/24 00:57:48;;;;;;;8.53;3.60;;;;;;;16.02;53.05;99761.06;1652546;86;21024;-69
2021/05/24 01:00:23;;;;;;;13.08;5.95;;;;;;;16.06;53.02;99769.47;1629411;86;21104;-71
2021/05/24 01:02:51;;;;;;;7.83;5.22;;;;;;;16.09;52.98;99764.82;1648145;86;21135;-72
2021/05/24 01:05:18;;;;;;;9.03;4.03;;;;;;;16.12;53.34;99766.41;1590539;90;21065;-70
2021/05/24 01:07:45;;;;;;;8.30;3.72;;;;;;;16.13;53.70;99768.03;1566696;89;20987;-71
2021/05/24 01:10:11;;;;;;;5.78;2.90;;;;;;;16.15;54.10;99767.77;1577263;90;21627;-70
2021/05/24 01:12:40;;;;;;;4.87;3.42;;;;;;;16.15;54.57;99775.91;1591898;89;21063;-69
2021/05/24 01:15:10;;;;;;;4.83;2.90;;;;;;;16.16;54.93;99778.89;1579937;90;21082;-70
2021/05/24 01:17:37;;;;;;;7.40;3.08;;;;;;;16.16;54.84;99781.60;1589055;89;21083;-71
2021/05/24 01:20:05;;;;;;;9.40;3.12;;;;;;;16.17;55.57;99800.02;1570969;90;21657;-69
2021/05/24 01:22:34;;;;;;;4.70;3.35;;;;;;;16.14;56.15;99802.77;1559027;90;21056;-69
2021/05/24 01:25:00;;;;;;;7.37;2.72;;;;;;;16.03;57.16;99802.58;1578489;90;21613;-70
2021/05/24 01:27:26;;;;;;;6.95;2.85;;;;;;;15.87;58.04;99810.03;1551604;91;21085;-70
2021/05/24 01:29:53;;;;;;;5.30;2.85;;;;;;;15.79;58.93;99807.89;1542430;92;21562;-68
2021/05/24 01:32:19;;;;;;;3.80;2.90;;;;;;;15.74;58.79;99806.56;1522447;93;21054;-69
2021/05/24 01:34:46;;;;;;;7.83;3.30;;;;;;;15.75;59.53;99806.84;1582977;89;21105;-69
2021/05/24 01:37:12;;;;;;;7.08;3.42;;;;;;;15.66;60.38;99809.34;1576227;91;21718;-69
2021/05/24 01:39:39;;;;;;;7.95;2.92;;;;;;;15.63;60.31;99813.16;1583569;89;21079;-72
2021/05/24 01:42:05;;;;;;;3.60;2.72;;;;;;;15.61;60.28;99821.56;1593409;90;21641;-75
2021/05/24 01:44:36;;;;;;;3.77;2.42;;;;;;;15.62;60.37;99818.31;1568457;90;21131;-70
2021/05/24 01:47:03;;;;;;;3.92;3.05;;;;;;;15.61;59.93;99823.47;1581282;89;21631;-70
2021/05/24 01:49:34;;;;;;;4.25;3.17;;;;;;;15.60;60.26;99824.55;1569814;90;21701;-70
2021/05/24 01:52:03;;;;;;;3.72;3.30;;;;;;;15.59;60.66;99823.73;1572353;90;21079;-70
2021/05/24 01:54:29;;;;;;;7.90;3.35;;;;;;;15.58;60.92;99831.63;1595119;89;21786;-70
2021/05/24 01:56:56;;;;;;;4.83;3.40;;;;;;;15.58;61.10;99824.03;1565274;91;21082;-68
2021/05/24 01:59:22;;;;;;;9.25;3.95;;;;;;;15.58;61.57;99828.91;1563197;90;21661;-69
2021/05/24 02:01:49;;;;;;;5.92;3.62;;;;;;;15.52;64.09;99832.73;1565279;91;21159;-69
2021/05/24 02:04:16;;;;;;;8.40;3.55;;;;;;;15.34;65.69;99839.30;1567543;90;21083;-68
2021/05/24 02:06:43;;;;;;;4.72;3.72;;;;;;;15.18;67.18;99838.53;1559041;90;21098;-70
2021/05/24 02:09:09;;;;;;;8.53;5.05;;;;;;;14.98;69.26;99834.52;1583433;89;20987;-70
2021/05/24 02:11:36;;;;;;;5.55;4.42;;;;;;;14.79;69.90;99842.42;1565464;91;21117;-71
2021/05/24 02:14:04;;;;;;;5.10;4.00;;;;;;;14.69;70.85;99845.95;1578875;89;21019;-70
2021/05/24 02:16:42;;;;;;;11.38;4.60;;;;;;;14.64;71.40;99849.20;1576166;91;21059;-70
2021/05/24 02:19:09;;;;;;;4.42;4.03;;;;;;;14.58;72.10;99853.03;1568666;90;21247;-73
2021/05/24 02:21:37;;;;;;;7.33;4.35;;;;;;;14.61;71.51;99851.93;1574368;90;21689;-71
2021/05/24 02:24:05;;;;;;;4.92;3.80;;;;;;;14.66;71.07;99861.41;1571548;90;21622;-71
2021/05/24 02:26:33;;;;;;;7.25;3.47;;;;;;;14.66;70.37;99861.41;1575947;90;21058;-69
2021/05/24 02:28:59;;;;;;;5.42;3.65;;;;;;;14.62;70.27;99863.03;1580449;90;20984;-72
2021/05/24 02:31:27;;;;;;;3.98;3.58;;;;;;;14.56;71.11;99865.47;1587783;90;20996;-73
2021/05/24 02:33:54;;;;;;;4.17;3.60;;;;;;;14.45;71.35;99873.84;1573011;90;21126;-73
2021/05/24 02:36:21;;;;;;;4.25;3.35;;;;;;;14.40;71.30;99878.18;1590602;90;21583;-73
2021/05/24 02:38:48;;;;;;;6.47;4.37;;;;;;;14.40;71.24;99879.53;1590559;89;20967;-73
2021/05/24 02:41:15;;;;;;;5.25;4.53;;;;;;;14.39;71.27;99885.20;1590949;89;21682;-73
2021/05/24 02:43:41;;;;;;;4.60;3.80;;;;;;;14.36;71.28;99883.05;1555672;90;21119;-72
2021/05/24 02:46:08;;;;;;;5.28;4.53;;;;;;;14.35;71.45;99882.74;1590190;90;21090;-74
2021/05/24 02:48:35;;;;;;;7.22;3.98;;;;;;;14.34;71.81;99891.40;1590618;89;21166;-72
2021/05/24 02:51:04;;;;;;;13.03;8.33;;;;;;;14.35;72.53;99886.80;1591083;89;21096;-73
2021/05/24 02:53:32;;;;;;;5.05;4.30;;;;;;;14.41;72.50;99896.59;1572176;90;21083;-72
2021/05/24 02:55:58;;;;;;;6.80;3.90;;;;;;;14.40;72.77;99897.13;1590297;90;21277;-71
2021/05/24 02:58:24;;;;;;;4.78;3.52;;;;;;;14.35;73.03;99894.38;1590823;90;21035;-74
2021/05/24 03:00:51;;;;;;;4.55;4.15;;;;;;;14.36;73.23;99904.70;1555533;92;20983;-74
2021/05/24 03:03:21;;;;;;;6.92;3.80;;;;;;;14.33;74.01;99903.86;1578718;90;21086;-73
2021/05/24 03:05:47;;;;;;;7.90;4.87;;;;;;;14.25;75.11;99909.25;1590491;90;21150;-71
2021/05/24 03:08:13;;;;;;;4.85;4.25;;;;;;;14.15;76.21;99907.88;1571181;90;21040;-73
2021/05/24 03:10:41;;;;;;;5.53;4.05;;;;;;;14.08;77.68;99902.46;1595539;89;21082;-72
2021/05/24 03:13:08;;;;;;;7.40;4.95;;;;;;;13.98;80.47;99906.77;1584981;89;20968;-72
2021/05/24 03:15:35;;;;;;;5.95;3.83;;;;;;;13.89;81.24;99907.02;1576693;89;20984;-75
2021/05/24 03:18:02;;;;;;;6.95;3.75;;;;;;;13.83;81.87;99910.78;1567980;90;21622;-72
2021/05/24 03:20:28;;;;;;;8.10;4.92;;;;;;;13.78;82.72;99909.94;1591459;89;21031;-74
2021/05/24 03:22:55;;;;;;;6.40;4.92;;;;;;;13.69;83.74;99913.70;1590238;90;21662;-73
2021/05/24 03:25:21;;;;;;;16.62;13.28;;;;;;;13.60;84.46;99916.64;1580597;87;21675;-73
2021/05/24 03:27:48;;;;;;;8.13;6.25;;;;;;;13.56;85.05;99914.20;1572155;90;21046;-73
2021/05/24 03:30:15;;;;;;;6.00;4.58;;;;;;;13.55;85.87;99915.27;1561030;90;21049;-74
2021/05/24 03:32:42;;;;;;;6.97;4.85;;;;;;;13.54;86.21;99913.64;1563297;90;21795;-73
2021/05/24 03:35:09;;;;;;;9.83;5.50;;;;;;;13.50;86.80;99912.01;1578139;90;20995;-73
2021/05/24 03:37:36;;;;;;;10.55;7.67;;;;;;;13.45;87.21;99920.62;1578261;90;21155;-74
2021/05/24 03:40:07;;;;;;;13.62;7.55;;;;;;;13.36;88.37;99914.09;1581349;90;21125;-76
2021/05/24 03:42:34;;;;;;;19.25;11.70;;;;;;;13.32;88.56;99921.92;1549498;92;21147;-74
2021/05/24 03:45:05;;;;;;;9.03;6.10;;;;;;;13.28;89.85;99924.06;1525189;93;21627;-73
2021/05/24 03:47:32;;;;;;;6.58;4.42;;;;;;;13.22;90.08;99921.86;1551330;91;21086;-74
2021/05/24 03:49:58;;;;;;;5.87;3.80;;;;;;;13.18;90.70;99917.24;1551303;92;21105;-73
2021/05/24 03:52:25;;;;;;;4.00;3.65;;;;;;;13.17;90.67;99919.66;1532032;92;21888;-73
2021/05/24 03:54:52;;;;;;;4.50;3.60;;;;;;;13.20;90.68;99919.95;1550462;92;21186;-75
2021/05/24 03:57:18;;;;;;;4.90;3.90;;;;;;;13.22;90.74;99919.69;1549257;92;21436;-76
2021/05/24 03:59:45;;;;;;;9.03;4.35;;;;;;;13.20;91.01;99924.53;1549520;92;21671;-76
2021/05/24 04:02:11;;;;;;;6.25;5.05;;;;;;;13.15;91.28;99927.20;1549564;91;21093;-76
2021/05/24 04:04:39;;;;;;;5.28;4.70;;;;;;;13.09;91.47;99929.83;1547791;92;21043;-77
2021/05/24 04:07:09;;;;;;;7.35;5.60;;;;;;;13.04;91.66;99923.61;1537475;92;21063;-75
2021/05/24 04:09:37;;;;;;;6.62;4.75;;;;;;;13.06;92.11;99925.50;1550252;92;21151;-76
2021/05/24 04:12:05;;;;;;;6.87;5.37;;;;;;;13.10;92.34;99931.47;1549264;91;21156;-74
2021/05/24 04:14:33;;;;;;;6.62;5.30;;;;;;;13.12;92.45;99929.90;1504779;93;21044;-75
2021/05/24 04:17:00;;;;;;;7.15;5.35;;;;;;;13.13;92.83;99928.83;1548703;92;21164;-73
2021/05/24 04:19:28;;;;;;;8.68;4.85;;;;;;;13.13;93.27;99930.18;1551906;92;21080;-72
2021/05/24 04:21:55;;;;;;;6.58;5.58;;;;;;;13.07;93.89;99933.34;1551704;91;21119;-73
2021/05/24 04:24:22;;;;;;;9.18;5.83;;;;;;;13.02;94.10;99929.27;1552500;91;20980;-73
2021/05/24 04:26:48;;;;;;;6.83;5.00;;;;;;;13.04;94.37;99934.41;1553364;91;20988;-73
2021/05/24 04:29:14;;;;;;;8.68;5.50;;;;;;;13.05;94.38;99935.48;1536855;92;21121;-75
2021/05/24 04:31:41;;;;;;;8.30;5.12;;;;;;;13.05;94.07;99937.36;1552877;92;21008;-73
2021/05/24 04:34:07;;;;;;;6.08;5.40;;;;;;;13.03;93.78;99933.59;1528634;92;21144;-72
2021/05/24 04:36:34;;;;;;;6.50;4.22;;;;;;;13.01;93.57;99937.61;1561218;90;21075;-72
2021/05/24 04:39:00;;;;;;;6.87;5.30;;;;;;;12.99;93.54;99941.95;1559912;90;21606;-75
2021/05/24 04:41:27;;;;;;;5.40;4.30;;;;;;;13.01;93.44;99938.96;1580920;90;20983;-73
2021/05/24 04:43:57;;;;;;;7.37;4.70;;;;;;;12.97;93.18;99943.26;1543275;91;21158;-73
2021/05/24 04:46:21;;;;;;;8.08;5.42;;;;;;;12.90;93.05;99944.82;1580605;90;21688;-75
2021/05/24 04:48:48;;;;;;;9.98;4.78;;;;;;;12.87;93.28;99944.53;1543144;91;21083;-75
2021/05/24 04:51:15;;;;;;;4.22;3.75;;;;;;;12.86;93.27;99937.50;1588468;89;21121;-73
2021/05/24 04:53:42;;;;;;;8.23;4.70;;;;;;;12.89;93.57;99945.09;1594040;89;21139;-76
2021/05/24 04:56:08;;;;;;;6.55;4.70;;;;;;;12.85;93.44;99948.86;1576592;91;21109;-75
2021/05/24 04:58:35;;;;;;;5.65;5.17;;;;;;;12.80;93.51;99946.12;1584754;89;21854;-75
2021/05/24 05:01:01;;;;;;;6.20;4.30;;;;;;;12.74;93.74;99957.12;1563932;91;21115;-77
2021/05/24 05:03:28;;;;;;;6.95;3.02;;;;;;;12.74;93.89;99954.42;1590431;90;21113;-74
2021/05/24 05:05:54;;;;;;;7.70;4.80;;;;;;;12.76;94.13;99958.47;1590095;90;21092;-76
2021/05/24 05:08:21;;;;;;;8.53;4.92;;;;;;;12.78;94.08;99963.09;1584876;89;21582;-75
2021/05/24 05:10:48;;;;;;;5.62;4.50;;;;;;;12.75;94.01;99958.22;1580148;90;21095;-74
2021/05/24 05:13:15;;;;;;;8.53;4.95;;;;;;;12.77;94.05;99961.98;1559037;90;21042;-76
2021/05/24 05:15:43;;;;;;;5.42;3.77;;;;;;;12.78;94.12;99963.09;1581016;90;21144;-74
2021/05/24 05:18:11;;;;;;;5.83;3.92;;;;;;;12.85;94.56;99966.41;1585578;90;21147;-75
2021/05/24 05:20:38;;;;;;;6.55;4.67;;;;;;;12.85;94.64;99969.64;1562062;91;21103;-75
2021/05/24 05:23:04;;;;;;;4.97;3.67;;;;;;;12.86;94.95;99972.05;1562029;91;21051;-75
2021/05/24 05:25:31;;;;;;;4.85;3.62;;;;;;;12.89;95.03;99977.49;1576070;90;21600;-75
2021/05/24 05:27:57;;;;;;;5.25;4.75;;;;;;;12.92;94.97;99981.83;1582899;90;21047;-76
2021/05/24 05:30:23;;;;;;;4.25;3.12;;;;;;;12.91;94.87;99983.43;1590572;88;21599;-77
2021/05/24 05:32:50;;;;;;;4.62;3.22;;;;;;;12.94;95.00;99987.80;1590846;89;21106;-76
2021/05/24 05:35:18;;;;;;;4.50;2.80;;;;;;;12.92;95.11;99991.81;1568989;90;21092;-76
2021/05/24 05:37:48;;;;;;;6.22;3.10;;;;;;;12.93;95.22;99993.45;1585110;89;21135;-74
2021/05/24 05:40:17;;;;;;;6.17;3.12;;;;;;;12.94;95.23;99999.95;1605449;88;21060;-77
2021/05/24 05:42:47;;;;;;;4.65;3.33;;;;;;;12.95;94.89;100005.61;1605593;89;21201;-73
2021/05/24 05:45:15;;;;;;;10.60;3.55;;;;;;;12.98;94.77;100003.76;1605627;88;21074;-76
2021/05/24 05:47:43;;;;;;;4.08;3.33;;;;;;;12.95;94.67;100005.61;1593222;89;21252;-75
2021/05/24 05:50:10;;;;;;;4.53;3.20;;;;;;;12.97;94.83;100008.88;1572806;90;21062;-75
2021/05/24 05:52:37;;;;;;;3.20;2.75;;;;;;;12.96;94.77;100013.99;1572888;90;21036;-76
2021/05/24 05:55:05;;;;;;;2.30;2.10;;;;;;;12.86;94.10;100011.20;1572859;90;20988;-77
2021/05/24 05:57:32;;;;;;;6.05;2.55;;;;;;;12.85;93.96;100013.64;1592233;90;21623;-75
2021/05/24 05:59:59;;;;;;;3.30;2.00;;;;;;;12.86;94.24;100009.03;1601721;89;21114;-76
2021/05/24 06:02:26;;;;;;;3.72;3.08;;;;;;;12.86;93.29;100019.83;1583082;89;21123;-75
2021/05/24 06:04:52;;;;;;;3.70;2.42;;;;;;;12.81;93.33;100015.73;1583669;89;20942;-75
2021/05/24 06:07:18;;;;;;;2.42;2.22;;;;;;;12.80;92.64;100020.88;1583691;89;21078;-75
2021/05/24 06:09:45;;;;;;;2.77;2.22;;;;;;;12.78;92.12;100022.47;1601493;89;21015;-75
2021/05/24 06:12:11;;;;;;;6.45;2.47;;;;;;;12.77;91.85;100022.19;1600053;89;21872;-76
2021/05/24 06:14:39;;;;;;;2.77;1.82;;;;;;;12.74;90.70;100022.71;1600093;89;21579;-75
2021/05/24 06:17:06;;;;;;;2.00;1.90;;;;;;;12.73;89.36;100027.00;1582001;89;21126;-79
2021/05/24 06:19:34;;;;;;;7.45;1.70;;;;;;;12.72;88.94;100032.94;1600594;89;20984;-74
2021/05/24 06:22:00;;;;;;;3.42;2.00;;;;;;;12.72;88.93;100034.81;1595666;89;20999;-74
2021/05/24 06:24:27;;;;;;;2.30;1.80;;;;;;;12.67;89.53;100040.45;1606869;88;21058;-76
2021/05/24 06:26:54;;;;;;;3.33;1.57;;;;;;;12.65;90.26;100039.09;1605705;89;21638;-76
2021/05/24 06:29:28;;;;;;;3.83;1.50;;;;;;;12.63;90.18;100034.47;1589088;88;21097;-77
2021/05/24 06:31:53;;;;;;;8.05;4.53;;;;;;;12.63;91.21;100052.01;1612054;88;21042;-76
2021/05/24 06:34:19;;;;;;;1.80;1.70;;;;;;;12.56;91.42;100050.87;1607572;89;21092;-76
2021/05/24 06:36:45;;;;;;;3.92;1.60;;;;;;;12.53;90.33;100049.20;1607707;89;21032;-75
2021/05/24 06:39:12;;;;;;;1.10;1.10;;;;;;;12.56;90.57;100053.58;1612878;88;21132;-75
2021/05/24 06:41:40;;;;;;;3.95;2.27;;;;;;;12.58;89.18;100059.52;1614639;88;20977;-74
2021/05/24 06:44:06;;;;;;;0.90;0.90;;;;;;;12.63;89.28;100062.80;1607873;88;21130;-75
2021/05/24 06:46:33;;;;;;;1.40;1.30;;;;;;;12.63;88.02;100065.50;1604125;89;21079;-75
2021/05/24 06:48:59;;;;;;;1.07;1.00;;;;;;;12.61;86.26;100057.65;1582072;89;21069;-75
2021/05/24 06:51:26;;;;;;;9.08;1.05;;;;;;;12.62;85.59;100071.95;1607678;89;21073;-73
2021/05/24 06:53:53;;;;;;;4.30;1.90;;;;;;;12.59;85.72;100085.97;1607724;89;21613;-74
2021/05/24 06:56:20;;;;;;;1.20;1.10;;;;;;;12.59;86.07;100093.53;1582343;89;21073;-74
2021/05/24 06:58:47;;;;;;;1.47;1.05;;;;;;;12.60;86.65;100096.52;1584268;89;21142;-76
2021/05/24 07:01:13;;;;;;;1.10;1.00;;;;;;;12.55;87.36;100099.69;1580252;89;21074;-80
2021/05/24 07:03:40;;;;;;;2.17;1.47;;;;;;;12.52;88.06;100096.12;1585024;89;21559;-73
2021/05/24 07:06:06;;;;;;;3.83;1.62;;;;;;;12.50;88.91;100104.50;1575328;90;21052;-76
2021/05/24 07:08:33;;;;;;;2.22;1.72;;;;;;;12.48;90.21;100107.97;1562984;91;21061;-75
2021/05/24 07:10:59;;;;;;;6.75;2.00;;;;;;;12.46;92.30;100106.60;1535170;92;21021;-73
2021/05/24 07:13:26;;;;;;;2.47;1.87;;;;;;;12.44;92.68;100100.09;1561393;91;21543;-72
2021/05/24 07:15:52;;;;;;;1.75;1.52;;;;;;;12.43;93.23;100110.60;1577315;90;21128;-73
2021/05/24 07:18:19;;;;;;;7.72;1.67;;;;;;;12.46;94.04;100108.77;1546166;91;21563;-74
2021/05/24 07:20:47;;;;;;;3.05;1.80;;;;;;;12.48;93.99;100120.63;1548927;92;21007;-72
2021/05/24 07:23:14;;;;;;;4.70;2.62;;;;;;;12.50;94.69;100115.81;1510739;94;21114;-71
2021/05/24 07:25:42;;;;;;;9.33;2.62;;;;;;;12.55;94.76;100117.23;1537740;93;21906;-73
2021/05/24 07:28:09;;;;;;;5.83;2.25;;;;;;;12.60;94.99;100122.69;1537635;92;21090;-72
2021/05/24 07:30:35;;;;;;;1.90;1.60;;;;;;;12.64;94.88;100125.16;1554682;91;21032;-72
2021/05/24 07:33:02;;;;;;;13.95;3.85;;;;;;;12.63;94.27;100124.87;1574929;91;21079;-72
2021/05/24 07:35:29;;;;;;;5.97;2.42;;;;;;;12.62;94.80;100130.80;1575725;91;21168;-74
2021/05/24 07:37:57;;;;;;;4.70;2.80;;;;;;;12.63;95.43;100124.34;1575389;91;21722;-76
2021/05/24 07:40:23;;;;;;;2.75;2.17;;;;;;;12.63;95.77;100125.69;1567987;91;21114;-77
2021/05/24 07:42:50;;;;;;;5.78;2.17;;;;;;;12.67;95.93;100128.69;1553847;91;21102;-74
2021/05/24 07:45:17;;;;;;;5.70;3.25;;;;;;;12.61;97.01;100125.11;1575430;91;21157;-75
2021/05/24 07:47:45;;;;;;;4.45;1.90;;;;;;;12.63;96.90;100141.87;1575846;91;21779;-78
2021/05/24 07:50:16;;;;;;;4.22;2.02;;;;;;;12.60;97.77;100133.48;1550281;91;20987;-74
2021/05/24 07:52:43;;;;;;;2.70;2.05;;;;;;;12.57;97.76;100137.48;1542444;91;21519;-76
2021/05/24 07:55:11;;;;;;;2.65;1.98;;;;;;;12.61;98.12;100141.30;1541848;91;21134;-74
2021/05/24 07:57:38;;;;;;;3.33;2.12;;;;;;;12.64;97.43;100144.05;1541800;91;21049;-75
2021/05/24 08:00:07;;;;;;;1.75;1.50;;;;;;;12.72;97.92;100138.19;1564261;91;21622;-74
2021/05/24 08:02:34;;;;;;;2.65;1.65;;;;;;;12.71;95.00;100138.47;1575497;90;21126;-76
2021/05/24 08:05:00;;;;;;;1.60;1.35;;;;;;;12.73;94.48;100130.91;1552049;91;21014;-76
2021/05/24 08:07:28;;;;;;;2.40;1.60;;;;;;;12.79;94.60;100139.36;1565715;91;21631;-74
2021/05/24 08:09:54;;;;;;;4.70;1.82;;;;;;;12.81;93.53;100138.02;1572075;91;21168;-74
2021/05/24 08:12:21;;;;;;;1.70;1.60;;;;;;;12.86;93.84;100136.73;1562469;91;21657;-77
2021/05/24 08:14:48;;;;;;;1.98;1.67;;;;;;;12.90;93.45;100137.84;1562555;91;21192;-76
2021/05/24 08:17:16;;;;;;;2.35;1.77;;;;;;;12.92;93.59;100139.77;1542108;91;21062;-77
2021/05/24 08:19:44;;;;;;;3.12;1.75;;;;;;;12.95;93.39;100136.55;1564081;91;21045;-75
2021/05/24 08:22:11;;;;;;;1.55;1.32;;;;;;;12.96;93.31;100140.89;1550896;91;21134;-76
2021/05/24 08:24:38;;;;;;;2.65;1.72;;;;;;;13.04;93.45;100151.78;1555783;91;21075;-77
2021/05/24 08:27:04;;;;;;;4.97;2.37;;;;;;;13.13;93.98;100142.72;1544126;91;21038;-76
2021/05/24 08:29:31;;;;;;;2.55;1.65;;;;;;;13.19;93.91;100143.84;1569486;90;21076;-77
2021/05/24 08:31:57;;;;;;;1.10;1.10;;;;;;;13.26;93.70;100147.70;1562021;91;21141;-77
2021/05/24 08:34:23;;;;;;;1.12;1.10;;;;;;;13.28;92.73;100149.09;1561832;91;21060;-77
2021/05/24 08:36:51;;;;;;;1.60;1.40;;;;;;;13.31;92.72;100158.02;1563127;91;21035;-77
2021/05/24 08:39:19;;;;;;;2.30;1.62;;;;;;;13.32;92.60;100156.95;1545068;91;21232;-76
2021/05/24 08:41:46;;;;;;;2.17;1.67;;;;;;;13.35;92.10;100163.72;1561423;91;21648;-78
2021/05/24 08:44:14;;;;;;;1.70;1.55;;;;;;;13.39;92.71;100157.55;1561560;91;21089;-76
2021/05/24 08:46:40;;;;;;;1.90;1.57;;;;;;;13.46;92.77;100160.86;1561319;91;21156;-75
2021/05/24 08:49:07;;;;;;;8.43;2.58;;;;;;;13.51;91.63;100150.62;1599404;89;21658;-75
2021/05/24 08:51:33;;;;;;;3.08;1.92;;;;;;;13.59;91.14;100158.25;1585086;89;21121;-76
2021/05/24 08:54:02;;;;;;;1.87;1.40;;;;;;;13.68;90.73;100159.41;1605088;88;20983;-76
2021/05/24 08:56:28;;;;;;;5.08;1.45;;;;;;;13.74;89.64;100168.38;1603989;89;20974;-76
2021/05/24 08:58:58;;;;;;;4.28;1.70;;;;;;;13.78;89.01;100173.00;1586295;89;21641;-76
2021/05/24 09:01:24;;;;;;;5.97;1.82;;;;;;;13.86;88.72;100185.25;1576426;89;21120;-77
2021/05/24 09:04:00;;;;;;;2.58;2.12;;;;;;;13.93;87.29;100184.47;1592123;90;21530;-77
2021/05/24 09:06:42;;;;;;;2.47;1.70;;;;;;;13.97;87.16;100197.21;1592168;89;21038;-77
2021/05/24 09:09:15;;;;;;;3.90;1.42;;;;;;;14.06;87.33;100187.25;1596326;89;21050;-75
2021/05/24 09:11:45;;;;;;;1.52;1.40;;;;;;;14.17;86.53;100186.25;1604586;89;21084;-78
2021/05/24 09:14:20;;;;;;;4.78;2.45;;;;;;;14.28;85.67;100194.72;1605113;88;21014;-77
2021/05/24 09:16:58;;;;;;;3.60;2.47;;;;;;;14.35;84.20;100183.11;1602396;88;22043;-81
2021/05/24 09:19:27;;;;;;;2.58;1.80;;;;;;;14.35;83.59;100180.40;1576976;90;21618;-78
2021/05/24 09:22:00;;;;;;;2.10;1.60;;;;;;;14.43;84.11;100179.95;1594762;89;21026;-77
2021/05/24 09:24:34;;;;;;;4.65;1.50;;;;;;;14.51;83.49;100194.87;1601867;89;21065;-78
2021/05/24 09:27:02;;;;;;;1.67;1.40;;;;;;;14.57;82.85;100192.47;1599957;89;21579;-78
2021/05/24 09:29:46;;;;;;;3.70;1.22;;;;;;;14.64;83.41;100187.61;1577304;89;21115;-77
2021/05/24 09:32:17;;;;;;;2.45;2.25;;;;;;;14.67;83.89;100187.10;1562085;91;21012;-79
2021/05/24 09:34:45;;;;;;;2.30;1.35;;;;;;;14.61;82.82;100193.03;1578555;90;21573;-79
2021/05/24 09:37:12;;;;;;;1.75;1.65;;;;;;;14.62;83.33;100203.32;1563656;90;21030;-78
2021/05/24 09:39:38;;;;;;;2.00;1.20;;;;;;;14.60;83.06;100200.05;1605810;88;20963;-77
2021/05/24 09:42:12;;;;;;;1.95;1.82;;;;;;;14.61;83.64;100216.58;1572948;86;21295;-79
2021/05/24 09:44:46;;;;;;;1.75;1.50;;;;;;;14.69;85.16;100207.94;1590060;88;20964;-78
2021/05/24 09:47:13;;;;;;;1.30;1.07;;;;;;;14.75;85.08;100216.37;1576486;89;20959;-78
2021/05/24 09:49:39;;;;;;;1.57;1.47;;;;;;;14.89;85.72;100209.38;1581403;90;21002;-77
2021/05/24 09:52:06;;;;;;;2.00;1.85;;;;;;;14.93;83.58;100198.83;1584526;89;20988;-78
2021/05/24 09:54:36;;;;;;;3.02;1.30;;;;;;;14.95;82.01;100211.04;1585525;90;21152;-77
2021/05/24 09:57:11;;;;;;;1.77;1.57;;;;;;;14.98;83.09;100220.52;1590415;90;21030;-77
2021/05/24 09:59:38;;;;;;;5.20;2.65;;;;;;;15.00;82.72;100217.02;1568862;90;20979;-76
2021/05/24 10:02:06;;;;;;;5.30;1.72;;;;;;;15.10;81.63;100220.58;1588731;90;21074;-75
2021/05/24 10:04:35;;;;;;;2.65;1.20;;;;;;;15.23;80.44;100208.41;1568896;90;21074;-76
2021/05/24 10:07:03;;;;;;;1.62;1.50;;;;;;;15.32;76.61;100210.86;1590312;90;21891;-75
2021/05/24 10:09:32;;;;;;;5.08;1.20;;;;;;;15.43;77.39;100217.94;1590283;88;21074;-74
2021/05/24 10:12:02;;;;;;;2.15;1.35;;;;;;;15.46;72.39;100202.48;1591455;88;21038;-83
2021/05/24 10:14:28;;;;;;;1.75;1.20;;;;;;;15.53;73.53;100208.50;1546538;90;21058;-70
2021/05/24 10:17:00;;;;;;;2.15;1.47;;;;;;;15.59;72.39;100201.97;1557751;90;21224;-70
2021/05/24 10:19:25;;;;;;;2.83;1.00;;;;;;;15.64;72.97;100207.94;1590322;89;21256;-70
2021/05/24 10:21:52;;;;;;;1.05;0.98;;;;;;;15.74;74.32;100202.52;1592054;90;20984;-70
2021/05/24 10:24:21;;;;;;;2.52;1.10;;;;;;;15.84;71.88;100215.27;1581304;90;21014;-70
2021/05/24 10:26:48;;;;;;;6.80;1.95;;;;;;;15.94;70.49;100200.34;1567676;90;21634;-77
2021/05/24 10:29:14;;;;;;;2.87;1.90;;;;;;;16.00;69.32;100190.59;1596317;89;21025;-71
2021/05/24 10:31:42;;;;;;;1.57;1.45;;;;;;;16.06;69.59;100190.86;1599928;89;21200;-70
2021/05/24 10:34:17;;;;;;;2.50;1.30;;;;;;;16.16;69.80;100185.95;1583037;89;21159;-69
2021/05/24 10:36:45;;;;;;;1.52;1.15;;;;;;;16.28;69.01;100187.82;1612053;89;21579;-70
2021/05/24 10:39:22;;;;;;;2.30;1.00;;;;;;;16.47;67.50;100200.25;1618414;88;21078;-77
2021/05/24 10:41:57;;;;;;;0.98;0.93;;;;;;;16.62;65.87;100194.00;1617493;87;21127;-83
2021/05/24 10:44:27;;;;;;;1.22;1.00;;;;;;;16.72;63.81;100195.31;1619532;87;22533;-80
2021/05/24 10:46:54;;;;;;;2.05;1.22;;;;;;;16.79;64.12;100202.06;1604083;88;20967;-71
2021/05/24 10:49:25;;;;;;;1.37;0.93;;;;;;;16.85;63.84;100202.86;1620445;87;21084;-73
2021/05/24 10:51:55;;;;;;;1.75;1.10;;;;;;;16.85;61.87;100197.42;1598482;88;21047;-73
2021/05/24 10:54:33;;;;;;;5.83;3.62;;;;;;;16.86;61.21;100203.95;1618708;87;21055;-74
2021/05/24 10:57:06;;;;;;;7.83;0.98;;;;;;;16.94;61.20;100203.36;1606152;88;21105;-73
2021/05/24 10:59:45;;;;;;;1.77;1.10;;;;;;;17.03;61.78;100213.64;1598036;88;21598;-73
2021/05/24 11:02:26;;;;;;;1.87;1.50;;;;;;;17.11;62.07;100196.77;1597041;88;21140;-70
2021/05/24 11:05:06;;;;;;;1.05;0.85;;;;;;;17.26;61.78;100221.97;1600681;87;21099;-69
2021/05/24 11:07:45;;;;;;;1.12;0.85;;;;;;;17.44;60.04;100204.98;1631973;87;21130;-71
2021/05/24 11:10:18;;;;;;;0.82;0.80;;;;;;;17.47;58.06;100214.47;1616032;88;21125;-70
2021/05/24 11:12:56;;;;;;;1.32;0.98;;;;;;;17.47;58.93;100220.45;1616237;88;21108;-71
2021/05/24 11:15:39;;;;;;;1.37;0.75;;;;;;;17.44;58.58;100224.56;1602154;87;21028;-68
2021/05/24 11:18:12;;;;;;;1.20;1.00;;;;;;;17.50;59.08;100211.20;1613262;87;21081;-68
2021/05/24 11:20:51;;;;;;;4.12;1.10;;;;;;;17.51;57.90;100224.23;1617739;87;21021;-70
2021/05/24 11:26:37;;;;;;;1.02;0.93;;;;;;;17.65;57.56;100230.14;1619331;87;21602;-71
2021/05/24 11:29:13;;;;;;;3.08;1.32;;;;;;;17.67;55.96;100225.25;1588704;89;21007;-72
2021/05/24 11:31:48;;;;;;;4.17;2.05;;;;;;;17.64;57.93;100240.79;1591892;90;21111;-71
2021/05/24 11:34:33;;;;;;;1.42;1.00;;;;;;;17.72;57.17;100238.81;1565382;90;21100;-73
2021/05/24 11:37:08;;;;;;;1.30;1.00;;;;;;;17.83;56.09;100236.84;1535146;92;21162;-71